createdAt,value
2022-11-09T00:00:14.706Z,8.17
2022-11-09T00:02:46.144Z,8.10
2022-11-09T00:05:16.328Z,8.12
2022-11-09T00:07:46.560Z,8.07
2022-11-09T00:10:21.638Z,7.97
2022-11-09T00:12:49.066Z,7.96
2022-11-09T00:15:16.835Z,7.92
2022-11-09T00:17:47.073Z,7.90
2022-11-09T00:20:15.323Z,7.95
2022-11-09T00:22:51.432Z,7.94
2022-11-09T00:25:19.529Z,7.93
2022-11-09T00:27:48.994Z,7.90
2022-11-09T00:30:19.677Z,7.85
2022-11-09T00:32:49.470Z,7.88
2022-11-09T00:35:17.390Z,7.90
2022-11-09T00:38:08.839Z,7.92
2022-11-09T00:40:39.476Z,7.93
2022-11-09T00:45:51.147Z,8.00
2022-11-09T00:48:21.497Z,8.05
2022-11-09T00:50:58.854Z,8.05
2022-11-09T00:53:27.654Z,8.09
2022-11-09T00:56:11.761Z,8.10
2022-11-09T00:58:39.677Z,8.15
2022-11-09T01:01:17.786Z,8.18
2022-11-09T01:03:47.746Z,8.26
2022-11-09T01:06:21.071Z,8.32
2022-11-09T01:08:51.683Z,8.36
2022-11-09T01:11:20.260Z,8.40
2022-11-09T01:13:47.741Z,8.39
2022-11-09T01:16:19.147Z,8.45
2022-11-09T01:18:46.446Z,8.51
2022-11-09T01:21:15.906Z,8.48
2022-11-09T01:23:43.632Z,8.52
2022-11-09T01:26:20.340Z,8.54
2022-11-09T01:28:47.537Z,8.55
2022-11-09T01:31:17.244Z,8.60
2022-11-09T01:33:44.537Z,8.63
2022-11-09T01:36:16.471Z,8.61
2022-11-09T01:38:43.965Z,8.58
2022-11-09T01:41:18.894Z,8.60
2022-11-09T01:43:47.350Z,8.65
2022-11-09T01:46:30.609Z,8.67
2022-11-09T01:49:03.523Z,8.69
2022-11-09T01:51:41.480Z,8.72
2022-11-09T01:54:17.143Z,8.72
2022-11-09T01:56:46.933Z,8.72
2022-11-09T01:59:18.898Z,8.78
2022-11-09T02:01:47.467Z,8.79
2022-11-09T02:04:21.920Z,8.75
2022-11-09T02:06:50.610Z,8.74
2022-11-09T02:09:28.551Z,8.78
2022-11-09T02:11:56.063Z,8.79
2022-11-09T02:14:26.784Z,8.73
2022-11-09T02:16:53.959Z,8.70
2022-11-09T02:19:20.958Z,8.75
2022-11-09T02:21:56.908Z,8.84
2022-11-09T02:24:25.315Z,8.85
2022-11-09T02:26:53.638Z,8.88
2022-11-09T02:29:28.317Z,8.86
2022-11-09T02:32:03.871Z,8.86
2022-11-09T02:34:31.406Z,8.85
2022-11-09T02:37:07.920Z,8.87
2022-11-09T02:39:35.174Z,8.89
2022-11-09T02:42:21.410Z,8.94
2022-11-09T02:44:51.916Z,8.94
2022-11-09T02:47:18.945Z,8.97
2022-11-09T02:49:45.966Z,8.98
2022-11-09T02:52:12.994Z,9.00
2022-11-09T02:54:39.993Z,8.98
2022-11-09T02:57:06.977Z,9.03
2022-11-09T02:59:34.147Z,9.04
2022-11-09T03:02:01.241Z,9.03
2022-11-09T03:04:28.265Z,9.02
2022-11-09T03:06:55.365Z,8.99
2022-11-09T03:09:22.539Z,9.02
2022-11-09T03:11:58.394Z,9.01
2022-11-09T03:14:53.903Z,9.03
2022-11-09T03:17:20.921Z,9.04
2022-11-09T03:19:48.080Z,9.09
2022-11-09T03:22:15.709Z,9.03
2022-11-09T03:24:42.726Z,9.04
2022-11-09T03:27:23.780Z,9.11
2022-11-09T03:29:50.815Z,9.07
2022-11-09T03:32:29.944Z,9.04
2022-11-09T03:34:57.205Z,9.03
2022-11-09T03:37:24.467Z,9.07
2022-11-09T03:39:51.479Z,9.06
2022-11-09T03:42:18.474Z,9.04
2022-11-09T03:44:45.559Z,9.07
2022-11-09T03:47:12.965Z,9.07
2022-11-09T03:49:42.287Z,9.04
2022-11-09T03:52:20.697Z,9.04
2022-11-09T03:55:15.650Z,9.08
2022-11-09T03:57:46.643Z,9.10
2022-11-09T04:00:18.924Z,9.05
2022-11-09T04:02:46.551Z,9.01
2022-11-09T04:05:17.153Z,9.01
2022-11-09T04:07:52.473Z,9.07
2022-11-09T04:10:21.549Z,9.08
2022-11-09T04:12:49.065Z,9.08
2022-11-09T04:15:16.543Z,9.06
2022-11-09T04:17:45.149Z,9.08
2022-11-09T04:20:12.828Z,9.09
2022-11-09T04:22:42.375Z,9.12
2022-11-09T04:25:25.203Z,9.12
2022-11-09T04:27:59.739Z,9.12
2022-11-09T04:33:18.636Z,9.11
2022-11-09T04:35:46.099Z,9.16
2022-11-09T04:38:14.651Z,9.17
2022-11-09T04:40:41.889Z,9.17
2022-11-09T04:43:12.709Z,9.17
2022-11-09T04:45:39.790Z,9.15
2022-11-09T04:48:08.319Z,9.15
2022-11-09T04:50:54.082Z,9.13
2022-11-09T04:53:21.687Z,9.11
2022-11-09T04:55:52.130Z,9.16
2022-11-09T04:58:27.149Z,9.15
2022-11-09T05:01:01.874Z,9.17
2022-11-09T05:03:32.045Z,9.20
2022-11-09T05:05:59.223Z,9.12
2022-11-09T05:08:26.578Z,9.20
2022-11-09T05:14:13.464Z,9.20
2022-11-09T05:19:33.530Z,9.25
2022-11-09T05:22:20.761Z,9.25
2022-11-09T05:24:52.117Z,9.20
2022-11-09T05:27:22.425Z,9.21
2022-11-09T05:29:53.388Z,9.22
2022-11-09T05:32:20.466Z,9.24
2022-11-09T05:34:52.842Z,9.27
2022-11-09T05:37:22.402Z,9.26
2022-11-09T05:39:49.505Z,9.33
2022-11-09T05:42:16.650Z,9.38
2022-11-09T05:44:43.818Z,9.43
2022-11-09T05:47:10.986Z,9.46
2022-11-09T05:49:38.296Z,9.48
2022-11-09T05:52:05.620Z,9.48
2022-11-09T05:54:47.452Z,9.52
2022-11-09T05:57:14.850Z,9.54
2022-11-09T05:59:41.805Z,9.55
2022-11-09T06:02:09.226Z,9.59
2022-11-09T06:04:36.433Z,9.61
2022-11-09T06:07:03.974Z,9.66
2022-11-09T06:09:33.998Z,9.75
2022-11-09T06:12:04.049Z,9.83
2022-11-09T06:14:31.175Z,9.83
2022-11-09T06:16:58.258Z,9.85
2022-11-09T06:19:25.639Z,10.01
2022-11-09T06:21:52.631Z,10.02
2022-11-09T06:24:19.787Z,10.02
2022-11-09T06:26:47.017Z,10.07
2022-11-09T06:29:14.063Z,10.12
2022-11-09T06:31:41.011Z,10.18
2022-11-09T06:34:14.831Z,10.25
2022-11-09T06:36:41.969Z,10.40
2022-11-09T06:39:09.327Z,10.48
2022-11-09T06:41:36.728Z,10.60
2022-11-09T06:44:05.686Z,10.69
2022-11-09T06:46:35.037Z,10.76
2022-11-09T06:49:03.029Z,10.85
2022-11-09T06:51:30.282Z,10.99
2022-11-09T06:53:57.377Z,11.12
2022-11-09T06:56:24.354Z,11.15
2022-11-09T06:58:51.259Z,11.21
2022-11-09T07:01:20.313Z,11.32
2022-11-09T07:03:47.303Z,11.46
2022-11-09T07:06:16.308Z,11.63
2022-11-09T07:08:43.648Z,11.86
2022-11-09T07:11:13.885Z,11.92
2022-11-09T07:13:40.891Z,12.10
2022-11-09T07:16:08.363Z,12.16
2022-11-09T07:18:35.417Z,12.26
2022-11-09T07:21:11.430Z,12.35
2022-11-09T07:23:41.415Z,12.47
2022-11-09T07:26:11.582Z,12.53
2022-11-09T07:28:38.763Z,12.60
2022-11-09T07:31:05.881Z,12.69
2022-11-09T07:33:33.623Z,12.74
2022-11-09T07:36:01.895Z,12.89
2022-11-09T07:38:30.904Z,12.98
2022-11-09T07:41:01.898Z,13.13
2022-11-09T07:43:30.124Z,13.23
2022-11-09T07:46:00.042Z,13.23
2022-11-09T07:48:27.013Z,13.37
2022-11-09T07:50:54.221Z,13.51
2022-11-09T07:53:21.944Z,13.54
2022-11-09T07:56:00.201Z,13.66
2022-11-09T07:58:28.141Z,13.71
2022-11-09T08:00:55.707Z,13.80
2022-11-09T08:03:24.544Z,13.96
2022-11-09T08:05:51.789Z,14.04
2022-11-09T08:08:19.041Z,14.13
2022-11-09T08:10:51.686Z,14.22
2022-11-09T08:13:19.965Z,14.31
2022-11-09T08:15:47.989Z,14.35
2022-11-09T08:18:16.594Z,14.44
2022-11-09T08:20:44.439Z,14.54
2022-11-09T08:23:15.112Z,14.63
2022-11-09T08:25:42.579Z,14.65
2022-11-09T08:28:14.460Z,14.64
2022-11-09T08:30:42.831Z,14.69
2022-11-09T08:33:10.421Z,14.78
2022-11-09T08:35:37.531Z,14.80
2022-11-09T08:38:06.117Z,14.89
2022-11-09T08:40:34.164Z,14.96
2022-11-09T08:43:08.131Z,15.08
2022-11-09T08:45:37.175Z,15.32
2022-11-09T08:48:04.765Z,15.50
2022-11-09T08:50:33.220Z,15.65
2022-11-09T08:53:01.593Z,15.85
2022-11-09T08:55:29.337Z,15.98
2022-11-09T08:57:57.194Z,16.11
2022-11-09T09:00:24.381Z,16.17
2022-11-09T09:02:51.346Z,16.23
2022-11-09T09:05:18.721Z,16.36
2022-11-09T09:07:46.163Z,16.42
2022-11-09T09:10:13.417Z,16.44
2022-11-09T09:12:40.629Z,16.53
2022-11-09T09:15:08.015Z,16.59
2022-11-09T09:17:36.005Z,16.72
2022-11-09T09:20:04.345Z,16.83
2022-11-09T09:22:33.708Z,16.88
2022-11-09T09:25:01.070Z,16.99
2022-11-09T09:27:29.728Z,17.04
2022-11-09T09:29:57.660Z,17.03
2022-11-09T09:32:24.796Z,17.02
2022-11-09T09:34:51.845Z,17.08
2022-11-09T09:37:19.424Z,17.16
2022-11-09T09:39:46.599Z,17.17
2022-11-09T09:42:43.651Z,17.29
2022-11-09T09:45:28.655Z,17.29
2022-11-09T09:48:14.570Z,17.31
2022-11-09T09:50:52.673Z,17.28
2022-11-09T09:53:42.364Z,17.36
2022-11-09T09:56:29.344Z,17.43
2022-11-09T09:59:21.448Z,17.42
2022-11-09T10:01:49.665Z,17.52
2022-11-09T10:04:23.772Z,17.66
2022-11-09T10:07:10.599Z,17.64
2022-11-09T10:09:52.809Z,17.65
2022-11-09T10:12:35.033Z,17.55
2022-11-09T10:15:13.960Z,17.46
2022-11-09T10:18:01.165Z,17.54
2022-11-09T10:20:36.708Z,17.53
2022-11-09T10:23:28.384Z,17.58
2022-11-09T10:26:30.615Z,17.56
2022-11-09T10:29:15.572Z,17.64
2022-11-09T10:31:45.839Z,17.63
2022-11-09T10:34:36.807Z,17.60
2022-11-09T10:37:17.500Z,17.60
2022-11-09T10:39:51.749Z,17.56
2022-11-09T10:42:18.651Z,17.46
2022-11-09T10:44:49.128Z,17.35
2022-11-09T10:47:18.268Z,17.32
2022-11-09T10:49:46.351Z,17.33
2022-11-09T10:52:46.205Z,17.20
2022-11-09T10:55:25.212Z,17.03
2022-11-09T10:58:04.570Z,16.95
2022-11-09T11:00:32.402Z,16.94
2022-11-09T11:03:16.238Z,16.86
2022-11-09T11:05:43.201Z,16.74
2022-11-09T11:08:32.837Z,16.71
2022-11-09T11:11:33.897Z,16.79
2022-11-09T11:14:32.205Z,16.82
2022-11-09T11:16:59.620Z,16.84
2022-11-09T11:19:34.826Z,16.86
2022-11-09T11:22:20.158Z,16.91
2022-11-09T11:24:54.821Z,16.95
2022-11-09T11:27:36.517Z,16.96
2022-11-09T11:30:16.277Z,16.99
2022-11-09T11:32:49.911Z,17.03
2022-11-09T11:35:25.161Z,17.08
2022-11-09T11:38:30.247Z,17.19
2022-11-09T11:41:21.348Z,17.41
2022-11-09T11:44:13.350Z,17.46
2022-11-09T11:47:02.315Z,17.62
2022-11-09T11:49:32.243Z,17.68
2022-11-09T11:52:11.330Z,17.75
2022-11-09T11:54:50.745Z,17.87
2022-11-09T11:57:43.334Z,17.90
2022-11-09T12:00:14.097Z,17.94
2022-11-09T12:03:02.049Z,18.06
2022-11-09T12:05:52.722Z,18.14
2022-11-09T12:08:29.091Z,18.02
2022-11-09T12:11:14.329Z,17.96
2022-11-09T12:13:56.055Z,17.96
2022-11-09T12:16:46.348Z,18.02
2022-11-09T12:19:52.752Z,18.02
2022-11-09T12:22:45.900Z,17.97
2022-11-09T12:25:37.132Z,17.99
2022-11-09T12:28:24.469Z,18.17
2022-11-09T12:31:00.368Z,18.18
2022-11-09T12:34:02.813Z,18.10
2022-11-09T12:36:46.213Z,18.08
2022-11-09T12:39:42.136Z,17.98
2022-11-09T12:42:42.661Z,17.78
2022-11-09T12:45:27.590Z,17.66
2022-11-09T12:47:58.237Z,17.78
2022-11-09T12:50:27.105Z,17.83
2022-11-09T12:52:54.351Z,17.77
2022-11-09T12:56:02.399Z,17.71
2022-11-09T12:58:32.392Z,17.67
2022-11-09T13:01:31.982Z,17.59
2022-11-09T13:04:04.276Z,17.56
2022-11-09T13:06:34.078Z,17.56
2022-11-09T13:09:03.726Z,17.54
2022-11-09T13:11:40.355Z,17.53
2022-11-09T13:14:22.328Z,17.48
2022-11-09T13:16:50.653Z,17.42
2022-11-09T13:19:36.120Z,17.33
2022-11-09T13:22:24.032Z,17.29
2022-11-09T13:24:55.831Z,17.25
2022-11-09T13:27:41.673Z,17.26
2022-11-09T13:30:43.647Z,17.21
2022-11-09T13:33:22.569Z,17.13
2022-11-09T13:35:49.660Z,17.06
2022-11-09T13:38:21.645Z,16.98
2022-11-09T13:40:53.191Z,16.92
2022-11-09T13:43:29.124Z,16.83
2022-11-09T13:46:05.677Z,16.83
2022-11-09T13:48:54.658Z,16.80
2022-11-09T13:51:38.135Z,16.62
2022-11-09T13:54:32.753Z,16.60
2022-11-09T13:57:07.023Z,16.49
2022-11-09T13:59:49.113Z,16.42
2022-11-09T14:02:23.339Z,16.38
2022-11-09T14:04:50.497Z,16.32
2022-11-09T14:07:26.648Z,16.24
2022-11-09T14:10:32.152Z,16.15
2022-11-09T14:13:36.732Z,16.05
2022-11-09T14:16:33.109Z,15.90
2022-11-09T14:19:34.148Z,15.72
2022-11-09T14:22:01.389Z,15.54
2022-11-09T14:24:33.232Z,15.41
2022-11-09T14:27:09.127Z,15.29
2022-11-09T14:29:59.695Z,15.13
2022-11-09T14:32:29.325Z,15.04
2022-11-09T14:35:22.625Z,14.89
2022-11-09T14:37:51.565Z,14.78
2022-11-09T14:40:24.000Z,14.67
2022-11-09T14:43:13.189Z,14.55
2022-11-09T14:45:52.149Z,14.44
2022-11-09T14:48:21.269Z,14.23
2022-11-09T14:50:50.507Z,14.12
2022-11-09T14:53:31.770Z,14.00
2022-11-09T14:56:03.739Z,13.84
2022-11-09T14:58:33.831Z,13.67
2022-11-09T15:01:24.269Z,13.52
2022-11-09T15:04:11.603Z,13.38
2022-11-09T15:06:51.240Z,13.26
2022-11-09T15:09:24.434Z,13.11
2022-11-09T15:11:52.612Z,13.00
2022-11-09T15:14:30.864Z,12.89
2022-11-09T15:17:27.707Z,12.76
2022-11-09T15:20:01.252Z,12.63
2022-11-09T15:22:40.742Z,12.54
2022-11-09T15:25:26.982Z,12.45
2022-11-09T15:28:14.081Z,12.31
2022-11-09T15:31:07.594Z,12.23
2022-11-09T15:33:45.037Z,12.10
2022-11-09T15:36:32.110Z,11.92
2022-11-09T15:39:12.908Z,11.67
2022-11-09T15:41:40.293Z,11.48
2022-11-09T15:44:08.096Z,11.43
2022-11-09T15:46:46.045Z,11.39
2022-11-09T15:49:25.757Z,11.28
2022-11-09T15:52:01.012Z,11.13
2022-11-09T15:54:28.154Z,11.00
2022-11-09T15:56:55.355Z,10.94
2022-11-09T15:59:25.929Z,10.90
2022-11-09T16:01:53.457Z,10.95
2022-11-09T16:04:20.583Z,10.90
2022-11-09T16:06:47.796Z,10.86
2022-11-09T16:09:16.021Z,10.80
2022-11-09T16:11:43.239Z,10.74
2022-11-09T16:14:10.428Z,10.60
2022-11-09T16:16:37.674Z,10.44
2022-11-09T16:19:04.921Z,10.41
2022-11-09T16:21:32.061Z,10.35
2022-11-09T16:23:59.387Z,10.30
2022-11-09T16:26:29.445Z,10.28
2022-11-09T16:28:56.561Z,10.23
2022-11-09T16:31:50.280Z,10.13
2022-11-09T16:34:12.068Z,10.17
2022-11-09T16:36:47.379Z,10.14
2022-11-09T16:39:27.201Z,10.05
2022-11-09T16:42:32.242Z,9.90
2022-11-09T16:45:40.304Z,9.80
2022-11-09T16:48:29.578Z,9.80
2022-11-09T16:50:57.221Z,9.74
2022-11-09T16:53:27.166Z,9.74
2022-11-09T16:55:55.165Z,9.84
2022-11-09T16:58:23.326Z,9.78
2022-11-09T17:03:40.300Z,9.75
2022-11-09T17:06:11.400Z,9.78
2022-11-09T17:08:39.807Z,9.78
2022-11-09T17:11:12.570Z,9.71
2022-11-09T17:13:40.336Z,9.69
2022-11-09T17:16:12.814Z,9.64
2022-11-09T17:18:43.187Z,9.63
2022-11-09T17:21:12.986Z,9.65
2022-11-09T17:23:45.159Z,9.64
2022-11-09T17:26:13.109Z,9.45
2022-11-09T17:28:44.158Z,9.40
2022-11-09T17:31:23.713Z,9.35
2022-11-09T17:33:51.038Z,9.33
2022-11-09T17:36:35.044Z,9.32
2022-11-09T17:39:06.882Z,9.33
2022-11-09T17:41:35.604Z,9.37
2022-11-09T17:44:06.580Z,9.32
2022-11-09T17:46:33.835Z,9.25
2022-11-09T17:49:05.678Z,9.18
2022-11-09T17:51:35.680Z,9.19
2022-11-09T17:54:04.228Z,9.14
2022-11-09T17:56:32.501Z,9.17
2022-11-09T17:58:59.945Z,9.15
2022-11-09T18:01:27.426Z,9.13
2022-11-09T18:03:54.585Z,9.14
2022-11-09T18:06:23.616Z,9.13
2022-11-09T18:09:16.459Z,9.09
2022-11-09T18:11:38.694Z,9.03
2022-11-09T18:14:05.853Z,9.02
2022-11-09T18:16:32.935Z,8.99
2022-11-09T18:19:02.057Z,8.90
2022-11-09T18:21:29.666Z,8.89
2022-11-09T18:23:57.058Z,8.79
2022-11-09T18:26:24.089Z,8.71
2022-11-09T18:28:52.285Z,8.62
2022-11-09T18:31:19.754Z,8.63
2022-11-09T18:33:46.902Z,8.54
2022-11-09T18:36:16.494Z,8.50
2022-11-09T18:38:44.653Z,8.49
2022-11-09T18:41:15.096Z,8.56
2022-11-09T18:43:42.443Z,8.29
2022-11-09T18:46:12.431Z,8.22
2022-11-09T18:48:39.577Z,8.13
2022-11-09T18:51:08.749Z,7.91
2022-11-09T18:53:41.233Z,7.86
2022-11-09T18:56:24.722Z,7.90
2022-11-09T18:58:53.729Z,7.88
2022-11-09T19:01:27.355Z,7.92
2022-11-09T19:03:59.271Z,7.90
2022-11-09T19:06:27.662Z,7.92
2022-11-09T19:09:14.143Z,7.91
2022-11-09T19:11:41.385Z,7.95
2022-11-09T19:14:10.690Z,8.00
2022-11-09T19:16:38.132Z,7.96
2022-11-09T19:19:05.212Z,7.97
2022-11-09T19:21:39.152Z,7.98
2022-11-09T19:24:07.128Z,7.93
2022-11-09T19:26:35.446Z,7.95
2022-11-09T19:29:02.934Z,7.85
2022-11-09T19:31:30.703Z,7.89
2022-11-09T19:33:58.407Z,7.83
2022-11-09T19:36:30.983Z,7.77
2022-11-09T19:38:58.644Z,7.81
2022-11-09T19:41:26.235Z,7.82
2022-11-09T19:43:56.190Z,7.81
2022-11-09T19:46:23.365Z,7.77
2022-11-09T19:48:54.136Z,7.74
2022-11-09T19:51:21.712Z,7.68
2022-11-09T19:53:55.734Z,7.66
2022-11-09T19:56:38.775Z,7.62
2022-11-09T19:59:07.305Z,7.60
2022-11-09T20:01:40.870Z,7.48
2022-11-09T20:04:55.235Z,7.43
2022-11-09T20:07:23.942Z,7.40
2022-11-09T20:09:52.740Z,7.35
2022-11-09T20:12:44.335Z,7.28
2022-11-09T20:15:11.711Z,7.31
2022-11-09T20:17:40.723Z,7.33
2022-11-09T20:26:54.088Z,7.24
2022-11-09T20:29:21.758Z,7.21
2022-11-09T20:32:12.022Z,7.09
2022-11-09T20:34:47.723Z,6.90
2022-11-09T20:37:21.250Z,6.89
2022-11-09T20:39:51.677Z,6.87
2022-11-09T20:42:23.620Z,6.90
2022-11-09T20:44:56.953Z,6.95
2022-11-09T20:47:49.093Z,7.00
2022-11-09T20:50:11.954Z,7.02
2022-11-09T20:53:06.908Z,6.97
2022-11-09T20:58:15.991Z,6.93
2022-11-09T21:00:46.512Z,6.95
2022-11-09T21:03:14.069Z,6.98
2022-11-09T21:05:40.988Z,6.91
2022-11-09T21:08:08.026Z,6.91
2022-11-09T21:10:35.700Z,6.93
2022-11-09T21:13:03.257Z,6.92
2022-11-09T21:15:30.682Z,6.95
2022-11-09T21:17:57.610Z,6.90
2022-11-09T21:20:24.509Z,6.86
2022-11-09T21:23:12.077Z,6.85
2022-11-09T21:26:02.259Z,6.79
2022-11-09T21:28:48.014Z,6.81
2022-11-09T21:31:15.222Z,6.70
2022-11-09T21:33:42.187Z,6.67
2022-11-09T21:36:11.269Z,6.63
2022-11-09T21:38:39.105Z,6.63
2022-11-09T21:41:27.190Z,6.55
2022-11-09T21:43:55.438Z,6.49
2022-11-09T21:46:23.859Z,6.46
2022-11-09T21:48:51.253Z,6.46
2022-11-09T21:51:18.148Z,6.41
2022-11-09T21:53:45.098Z,6.40
2022-11-09T21:56:13.138Z,6.38
2022-11-09T21:58:40.058Z,6.38
2022-11-09T22:01:11.109Z,6.30
2022-11-09T22:03:39.890Z,6.30
2022-11-09T22:06:07.232Z,6.27
2022-11-09T22:08:34.217Z,6.31
2022-11-09T22:11:10.629Z,6.29
2022-11-09T22:13:56.977Z,6.27
2022-11-09T22:16:25.658Z,6.20
2022-11-09T22:19:11.655Z,6.22
2022-11-09T22:21:39.068Z,6.20
2022-11-09T22:24:06.475Z,6.16
2022-11-09T22:26:33.509Z,6.09
2022-11-09T22:29:00.549Z,6.13
2022-11-09T22:31:28.375Z,6.10
2022-11-09T22:33:55.470Z,6.06
2022-11-09T22:36:23.938Z,6.02
2022-11-09T22:38:51.421Z,6.01
2022-11-09T22:41:18.451Z,6.07
2022-11-09T22:43:45.662Z,6.02
2022-11-09T22:46:15.164Z,5.97
2022-11-09T22:48:43.819Z,5.97
2022-11-09T22:51:15.989Z,6.00
2022-11-09T22:53:43.259Z,6.00
2022-11-09T22:56:11.257Z,5.96
2022-11-09T22:58:37.980Z,5.97
2022-11-09T23:01:09.683Z,5.92
2022-11-09T23:03:36.992Z,5.84
2022-11-09T23:06:10.467Z,5.76
2022-11-09T23:08:38.393Z,5.76
2022-11-09T23:11:16.258Z,5.77
2022-11-09T23:13:43.714Z,5.76
2022-11-09T23:16:12.094Z,5.68
2022-11-09T23:18:54.865Z,5.70
2022-11-09T23:21:28.376Z,5.69
2022-11-09T23:23:57.828Z,5.67
2022-11-09T23:26:25.802Z,5.60
2022-11-09T23:28:52.635Z,5.58
2022-11-09T23:31:24.579Z,5.55
2022-11-09T23:33:57.283Z,5.56
2022-11-09T23:36:26.024Z,5.54
2022-11-09T23:38:53.592Z,5.52
2022-11-09T23:41:21.384Z,5.49
2022-11-09T23:43:49.932Z,5.48
2022-11-09T23:46:18.252Z,5.52
2022-11-09T23:48:45.419Z,5.47
2022-11-09T23:51:12.758Z,5.43
2022-11-09T23:53:39.837Z,5.44
2022-11-09T23:56:09.937Z,5.44
2022-11-09T23:58:37.421Z,5.39
